createdAt,value
2023-03-07T00:02:21.435Z,7.70
2023-03-07T00:07:15.196Z,11.90
2023-03-07T00:12:09.556Z,8.63
2023-03-07T00:17:03.508Z,8.30
2023-03-07T00:21:57.778Z,11.30
2023-03-07T00:26:51.666Z,8.20
2023-03-07T00:31:44.441Z,7.68
2023-03-07T00:36:38.969Z,10.35
2023-03-07T00:41:31.471Z,10.20
2023-03-07T00:46:26.170Z,7.18
2023-03-07T00:51:20.692Z,7.78
2023-03-07T00:56:16.987Z,6.35
2023-03-07T01:01:12.394Z,8.07
2023-03-07T01:06:08.994Z,6.70
2023-03-07T01:11:03.628Z,8.70
2023-03-07T01:15:56.852Z,14.15
2023-03-07T01:20:49.968Z,12.02
2023-03-07T01:25:43.425Z,6.97
2023-03-07T01:30:37.684Z,8.07
2023-03-07T01:35:30.059Z,7.50
2023-03-07T01:40:24.640Z,8.95
2023-03-07T01:45:34.653Z,9.00
2023-03-07T01:50:28.292Z,8.20
2023-03-07T01:55:25.235Z,8.75
2023-03-07T02:00:29.949Z,8.43
2023-03-07T02:05:27.347Z,8.60
2023-03-07T02:10:22.996Z,12.05
2023-03-07T02:15:17.330Z,14.00
2023-03-07T02:20:36.819Z,12.32
2023-03-07T02:25:36.580Z,16.23
2023-03-07T02:30:30.349Z,15.73
2023-03-07T02:35:26.310Z,14.93
2023-03-07T02:40:25.378Z,21.25
2023-03-07T02:45:19.717Z,21.23
2023-03-07T02:50:13.690Z,16.25
2023-03-07T02:55:11.077Z,13.23
2023-03-07T03:00:10.763Z,11.53
2023-03-07T03:05:04.683Z,14.60
2023-03-07T03:09:58.732Z,15.82
2023-03-07T03:14:51.369Z,21.45
2023-03-07T03:19:43.822Z,18.85
2023-03-07T03:24:41.362Z,19.65
2023-03-07T03:29:35.672Z,27.02
2023-03-07T03:34:31.102Z,25.13
2023-03-07T03:39:24.055Z,25.05
2023-03-07T03:44:22.521Z,26.80
2023-03-07T03:49:18.167Z,27.30
2023-03-07T03:54:14.228Z,21.58
2023-03-07T03:59:08.536Z,25.65
2023-03-07T04:04:01.369Z,25.55
2023-03-07T04:08:55.660Z,36.40
2023-03-07T04:13:48.852Z,26.55
2023-03-07T04:18:43.281Z,26.73
2023-03-07T04:23:37.158Z,21.85
2023-03-07T04:28:49.600Z,21.52
2023-03-07T04:33:54.031Z,16.80
2023-03-07T04:38:48.755Z,19.65
2023-03-07T04:43:42.234Z,11.70
2023-03-07T04:48:37.076Z,20.55
2023-03-07T04:53:30.025Z,21.83
2023-03-07T04:58:24.250Z,10.65
2023-03-07T05:03:17.831Z,15.95
2023-03-07T05:08:11.656Z,17.13
2023-03-07T05:13:05.129Z,15.82
2023-03-07T05:17:58.486Z,20.92
2023-03-07T05:22:52.926Z,19.40
2023-03-07T05:27:46.186Z,16.20
2023-03-07T05:32:39.225Z,14.13
2023-03-07T05:37:33.106Z,13.55
2023-03-07T05:42:26.598Z,16.23
2023-03-07T05:47:20.244Z,14.98
2023-03-07T05:52:13.527Z,16.92
2023-03-07T05:57:07.931Z,13.30
2023-03-07T06:02:01.328Z,19.17
2023-03-07T06:06:55.351Z,18.38
2023-03-07T06:11:48.305Z,19.23
2023-03-07T06:16:41.625Z,23.17
2023-03-07T06:21:35.270Z,19.00
2023-03-07T06:26:29.158Z,26.10
2023-03-07T06:31:22.378Z,27.58
2023-03-07T06:36:17.789Z,28.17
2023-03-07T06:41:14.834Z,23.70
2023-03-07T06:46:09.782Z,28.92
2023-03-07T06:51:10.419Z,31.77
2023-03-07T06:56:07.320Z,26.83
2023-03-07T07:01:02.268Z,19.95
2023-03-07T07:05:56.686Z,18.25
2023-03-07T07:10:50.335Z,37.65
2023-03-07T07:15:45.138Z,29.00
2023-03-07T07:20:39.182Z,24.27
2023-03-07T07:25:32.158Z,21.35
2023-03-07T07:30:25.265Z,17.83
2023-03-07T07:35:18.736Z,13.25
2023-03-07T07:40:15.672Z,19.83
2023-03-07T07:45:12.876Z,41.13
2023-03-07T07:50:06.661Z,24.27
2023-03-07T07:55:01.826Z,12.73
2023-03-07T07:59:54.958Z,13.57
2023-03-07T08:04:48.402Z,13.82
2023-03-07T08:09:41.616Z,13.82
2023-03-07T08:14:36.023Z,14.60
2023-03-07T08:19:29.127Z,11.82
2023-03-07T08:24:29.375Z,14.63
2023-03-07T08:29:33.400Z,13.80
2023-03-07T08:34:27.287Z,14.85
2023-03-07T08:39:21.319Z,12.05
2023-03-07T08:44:14.292Z,8.40
2023-03-07T08:49:07.111Z,18.05
2023-03-07T08:54:00.311Z,10.32
2023-03-07T08:58:54.361Z,10.65
2023-03-07T09:03:47.134Z,11.27
2023-03-07T09:08:40.518Z,8.80
2023-03-07T09:13:42.960Z,8.30
2023-03-07T09:18:43.484Z,13.70
2023-03-07T09:23:37.526Z,7.82
2023-03-07T09:28:31.012Z,7.78
2023-03-07T09:33:23.401Z,8.75
2023-03-07T09:38:16.575Z,7.97
2023-03-07T09:43:12.229Z,14.63
2023-03-07T09:48:23.473Z,7.25
2023-03-07T09:53:38.184Z,9.32
2023-03-07T09:58:34.167Z,9.57
2023-03-07T10:03:34.156Z,11.85
2023-03-07T10:08:33.889Z,7.68
2023-03-07T10:13:45.800Z,7.15
2023-03-07T10:18:58.993Z,12.43
2023-03-07T10:24:25.327Z,7.40
2023-03-07T10:29:20.844Z,9.90
2023-03-07T10:34:32.866Z,10.07
2023-03-07T10:39:36.562Z,11.88
2023-03-07T10:44:33.875Z,7.95
2023-03-07T10:49:37.680Z,9.68
2023-03-07T10:54:35.469Z,10.98
2023-03-07T10:59:28.598Z,6.20
2023-03-07T11:04:24.982Z,6.20
2023-03-07T11:09:24.095Z,6.67
2023-03-07T11:14:18.842Z,6.72
2023-03-07T11:19:33.786Z,13.55
2023-03-07T11:24:49.352Z,8.15
2023-03-07T11:29:42.501Z,10.82
2023-03-07T11:34:47.259Z,14.38
2023-03-07T11:40:08.710Z,8.10
2023-03-07T11:45:08.993Z,10.57
2023-03-07T11:50:20.563Z,3.83
2023-03-07T11:55:38.786Z,7.28
2023-03-07T12:00:53.038Z,12.23
2023-03-07T12:06:15.338Z,9.23
2023-03-07T12:11:23.722Z,7.82
2023-03-07T12:16:31.581Z,4.53
2023-03-07T12:21:39.339Z,4.13
2023-03-07T12:26:58.750Z,8.18
2023-03-07T12:31:55.170Z,4.40
2023-03-07T12:36:50.945Z,7.05
2023-03-07T12:42:06.767Z,4.90
2023-03-07T12:47:07.945Z,4.55
2023-03-07T12:52:03.289Z,9.50
2023-03-07T12:57:01.646Z,8.23
2023-03-07T13:02:04.197Z,6.88
2023-03-07T13:07:11.224Z,10.50
2023-03-07T13:12:30.751Z,8.18
2023-03-07T13:17:32.222Z,6.00
2023-03-07T13:22:25.312Z,4.05
2023-03-07T13:27:27.797Z,5.50
2023-03-07T13:32:49.269Z,11.43
2023-03-07T13:38:23.942Z,6.78
2023-03-07T13:43:19.323Z,7.05
2023-03-07T13:48:25.348Z,6.80
2023-03-07T13:53:38.437Z,7.03
2023-03-07T13:58:34.884Z,8.73
2023-03-07T14:03:39.945Z,9.13
2023-03-07T14:08:35.416Z,6.85
2023-03-07T14:13:42.617Z,5.25
2023-03-07T14:18:47.295Z,6.10
2023-03-07T14:24:04.333Z,7.22
2023-03-07T14:29:02.631Z,5.03
2023-03-07T14:33:55.324Z,7.57
2023-03-07T14:38:49.353Z,5.88
2023-03-07T14:43:49.129Z,5.68
2023-03-07T14:49:16.250Z,4.00
2023-03-07T14:54:16.160Z,6.50
2023-03-07T14:59:14.219Z,8.45
2023-03-07T15:04:25.213Z,4.95
2023-03-07T15:09:19.142Z,5.82
2023-03-07T15:14:15.978Z,5.32
2023-03-07T15:19:20.911Z,5.95
2023-03-07T15:24:23.690Z,6.15
2023-03-07T15:29:17.586Z,5.25
2023-03-07T15:34:31.464Z,4.78
2023-03-07T15:39:34.748Z,5.88
2023-03-07T15:44:29.235Z,7.70
2023-03-07T15:49:42.918Z,8.23
2023-03-07T15:54:39.464Z,7.72
2023-03-07T15:59:35.758Z,5.50
2023-03-07T16:04:37.914Z,7.03
2023-03-07T16:09:31.912Z,5.75
2023-03-07T16:14:45.039Z,7.65
2023-03-07T16:19:39.045Z,2.85
2023-03-07T16:24:32.569Z,3.03
2023-03-07T16:29:26.096Z,2.78
2023-03-07T16:34:21.573Z,2.50
2023-03-07T16:39:15.633Z,1.88
2023-03-07T16:44:08.380Z,2.28
2023-03-07T16:49:02.605Z,8.30
2023-03-07T16:53:57.480Z,3.70
2023-03-07T16:58:50.750Z,6.15
2023-03-07T17:03:43.286Z,5.47
2023-03-07T17:08:37.034Z,5.32
2023-03-07T17:13:29.975Z,8.85
2023-03-07T17:18:23.002Z,9.05
2023-03-07T17:23:16.227Z,6.65
2023-03-07T17:28:13.853Z,7.82
2023-03-07T17:33:07.143Z,5.13
2023-03-07T17:37:59.973Z,7.63
2023-03-07T17:42:55.685Z,4.28
2023-03-07T17:47:51.958Z,5.05
2023-03-07T17:52:45.355Z,8.05
2023-03-07T17:57:38.953Z,15.43
2023-03-07T18:02:32.900Z,8.90
2023-03-07T18:07:25.703Z,5.97
2023-03-07T18:12:18.564Z,7.05
2023-03-07T18:17:11.899Z,4.82
2023-03-07T18:22:04.952Z,12.43
2023-03-07T18:27:02.402Z,5.38
2023-03-07T18:31:55.918Z,7.28
2023-03-07T18:36:51.732Z,12.55
2023-03-07T18:41:43.910Z,14.95
2023-03-07T18:46:37.385Z,9.27
2023-03-07T18:51:29.614Z,6.00
2023-03-07T18:56:22.998Z,12.32
2023-03-07T19:01:27.947Z,15.85
2023-03-07T19:06:22.519Z,15.25
2023-03-07T19:11:15.943Z,13.73
2023-03-07T19:16:15.000Z,7.57
2023-03-07T19:21:08.656Z,17.92
2023-03-07T19:26:06.042Z,21.10
2023-03-07T19:30:58.990Z,13.32
2023-03-07T19:36:12.601Z,9.57
2023-03-07T19:41:06.837Z,11.27
2023-03-07T19:46:00.903Z,7.53
2023-03-07T19:50:55.166Z,5.55
2023-03-07T19:55:48.918Z,8.75
2023-03-07T20:00:43.666Z,6.85
2023-03-07T20:05:41.639Z,7.93
2023-03-07T20:10:35.139Z,10.23
2023-03-07T20:15:29.790Z,9.18
2023-03-07T20:20:23.630Z,10.70
2023-03-07T20:25:17.684Z,9.18
2023-03-07T20:30:13.271Z,9.07
2023-03-07T20:35:08.624Z,11.05
2023-03-07T20:40:04.627Z,15.25
2023-03-07T20:44:58.535Z,10.23
2023-03-07T20:49:51.923Z,11.10
2023-03-07T20:54:44.822Z,9.60
2023-03-07T20:59:38.015Z,7.15
2023-03-07T21:04:31.434Z,9.57
2023-03-07T21:09:24.855Z,9.07
2023-03-07T21:14:19.355Z,11.63
2023-03-07T21:19:12.312Z,15.52
2023-03-07T21:24:08.360Z,12.50
2023-03-07T21:29:04.725Z,15.70
2023-03-07T21:34:01.662Z,18.58
2023-03-07T21:38:56.405Z,17.90
2023-03-07T21:43:50.378Z,18.38
2023-03-07T21:48:43.796Z,22.15
2023-03-07T21:53:37.367Z,14.13
2023-03-07T21:58:30.702Z,14.70
2023-03-07T22:03:27.671Z,16.23
2023-03-07T22:08:21.672Z,14.00
2023-03-07T22:13:15.351Z,24.88
2023-03-07T22:18:08.391Z,15.65
2023-03-07T22:23:01.168Z,15.23
2023-03-07T22:27:54.988Z,12.60
2023-03-07T22:32:49.238Z,12.45
2023-03-07T22:37:41.951Z,18.33
2023-03-07T22:42:36.280Z,19.70
2023-03-07T22:47:32.013Z,19.00
2023-03-07T22:52:25.765Z,20.73
2023-03-07T22:57:17.777Z,59.97
2023-03-07T23:02:11.000Z,24.58
2023-03-07T23:07:04.676Z,17.95
2023-03-07T23:11:58.374Z,19.95
2023-03-07T23:16:52.602Z,14.98
2023-03-07T23:21:46.448Z,17.80
2023-03-07T23:26:39.955Z,16.92
2023-03-07T23:31:38.304Z,11.80
2023-03-07T23:36:32.794Z,16.87
2023-03-07T23:41:26.359Z,18.67
2023-03-07T23:46:20.390Z,18.40
2023-03-07T23:51:13.586Z,15.85
2023-03-07T23:56:07.612Z,16.58
